Newburg Corners, Wisconsin
Current Conditions -  °F | °C
As of 4:53 PM on Tuesday 25 Nov 2014 (Local Time) from KLSE Reporting Station
Overcast Overcast  
Wind Chill: -7°   Ceiling: 6000
Heat Index: -4°   Visibility: 10mi
Dew Point: -11°   Wind: 5mph
Humidity: 60%   Direction: 170°S
Pressure: 30.1"   Gusts: NA
Location:  43.8385°N, 90.9811°W
Report Text: KLSE 252253Z 17004KT 10SM OVC060 M04/M11 A3010 RMK AO2 SLP208 T10391106
Loading
Personal Weather Stations






























Interactive Weather Map New forecast layout! Learn more

10-Day Weather Forecast

Advertisements
Track Severe Weather on mobile